Airfield :
LOGIN :

Register | Disclaimer

   EN    FR    IT 

 










Legend :    VFR   Marginal VFR   IFR   Intensive IFR   Very Intensive IFR
Visi :
Ceiling :
>= 8 km
>= 3000ft
5 to 8 km
1000 to 3000 ft
1500m to 5 km
500 to 1000 ft
800 to 1500m
200 to 500 ft
< 800m
< 200 ft
Symbols :   Thunderstorms  Fog  Heavy snow  Heavy precipitations  Wind > 20 kt
SIGMETs :     Misc.  Thunderstorms  Icing  Turbulence  Mountain Waves  Volcanic Ashes






- Airport Elevation : 302 ft
- IATA code : MAH


LEMH - Menorca

CURRENT METAR :
  • 232130Z 17008KT 120V250 CAVOK 26/22 Q1012

EXPIRED METARs :
  • 232100Z 16006KT 120V190 CAVOK 26/21 Q1012
  • 232030Z 14007KT CAVOK 27/21 Q1012
  • 232000Z 14006KT CAVOK 27/20 Q1012
  • 231930Z 13007KT CAVOK 27/19 Q1012
  • 231900Z 15008KT 070V180 CAVOK 27/19 Q1012

TAF TAF LEMH
Valid from the 23 at 21:00 until the 24 at 21:00 UTC


232000Z 2321/2421 15007KT CAVOK TX33/2415Z TN22/2405Z



MET'MAP, your aeronautical weather chart ! - Copyright ORBIFLY December 2007 - Disclaimer

ORBIFLY MET'MAP TEAM :

Programming & Development : Alexandra Zaïnal
Concept & original design : Baudouin d'Aumeries
Assistance for programming : Marc-Olivier Méhu
Technical & hardware support : Manuel Goepfert

Contact : metmap@orbifly.com




SOURCES & CREDITS :

   NOAA